Time;durP1;ratioP1;P1;durP2;ratioP2;P2;SDS_P1;SDS_P2;PMS_P1;PMS_P2;Temp;Humidity;BMP_temperature;BMP_pressure;BME280_temperature;BME280_humidity;BME280_pressure;Samples;Min_cycle;Max_cycle;Signal;HPM_P1;HPM_P2
2022/11/09 00:04:58;;;;;;;9.67;5.10;;;16.00;99.90;;;;;;7465982;78;26746;-53
2022/11/09 00:15:01;;;;;;;8.97;4.40;;;16.20;99.90;;;;;;7463840;78;26378;-55
2022/11/09 00:25:04;;;;;;;9.67;4.70;;;16.20;99.90;;;;;;7465434;78;26287;-55
2022/11/09 00:35:07;;;;;;;10.00;4.70;;;16.10;99.90;;;;;;7466536;78;26316;-55
2022/11/09 00:45:09;;;;;;;9.10;3.77;;;16.20;99.90;;;;;;7450586;78;26289;-53
2022/11/09 00:55:12;;;;;;;8.87;3.73;;;16.10;99.90;;;;;;7446918;78;26384;-56
2022/11/09 01:05:14;;;;;;;6.93;3.40;;;16.20;99.90;;;;;;7534198;77;26806;-58
2022/11/09 01:15:17;;;;;;;5.93;3.40;;;16.20;99.90;;;;;;7533307;77;26412;-57
2022/11/09 01:25:19;;;;;;;6.80;3.57;;;16.10;99.90;;;;;;7543994;79;26301;-57
2022/11/09 01:35:22;;;;;;;9.23;3.70;;;16.30;99.90;;;;;;7542267;77;26387;-58
2022/11/09 01:45:30;;;;;;;5.73;2.90;;;16.10;99.90;;;;;;7530811;77;26433;-58
2022/11/09 01:55:32;;;;;;;9.60;3.53;;;16.20;99.90;;;;;;7548964;77;26321;-59
2022/11/09 02:05:38;;;;;;;5.97;2.60;;;16.10;99.90;;;;;;7535766;77;26274;-58
2022/11/09 02:15:41;;;;;;;5.50;3.20;;;16.10;99.90;;;;;;7549446;79;27334;-59
2022/11/09 02:25:47;;;;;;;5.23;3.03;;;16.10;99.90;;;;;;7549300;79;26309;-58
2022/11/09 02:35:49;;;;;;;5.90;3.30;;;16.20;99.90;;;;;;7543934;79;26274;-59
2022/11/09 02:45:52;;;;;;;4.83;3.00;;;16.30;99.90;;;;;;7549433;79;26787;-57
2022/11/09 02:55:54;;;;;;;4.90;2.40;;;16.20;99.90;;;;;;7548905;79;26344;-57
2022/11/09 03:05:57;;;;;;;2.87;2.00;;;16.20;99.90;;;;;;7548058;79;26356;-57
2022/11/09 03:16:07;;;;;;;3.37;2.13;;;16.20;99.90;;;;;;7548414;77;26791;-58
2022/11/09 03:26:09;;;;;;;4.40;2.07;;;16.10;99.90;;;;;;7520376;79;26336;-59
2022/11/09 03:36:12;;;;;;;4.67;2.53;;;16.20;99.90;;;;;;7528380;77;26298;-58
2022/11/09 03:46:14;;;;;;;4.63;2.20;;;16.10;99.90;;;;;;7540036;79;26800;-58
2022/11/09 03:56:17;;;;;;;3.97;2.10;;;16.10;99.90;;;;;;7541107;79;26371;-58
2022/11/09 04:06:20;;;;;;;2.70;1.87;;;16.20;99.90;;;;;;7549363;79;26239;-59
2022/11/09 04:16:23;;;;;;;5.87;1.90;;;16.20;99.90;;;;;;7537833;77;26274;-59
2022/11/09 04:26:25;;;;;;;4.87;2.13;;;16.20;99.90;;;;;;7549204;79;26780;-59
2022/11/09 04:36:28;;;;;;;4.30;1.60;;;16.30;99.90;;;;;;7541262;77;26293;-59
2022/11/09 04:46:30;;;;;;;2.40;1.80;;;16.10;99.90;;;;;;7549371;79;26360;-59
2022/11/09 04:56:33;;;;;;;2.63;1.50;;;16.10;99.90;;;;;;7543543;79;26810;-59
2022/11/09 05:06:35;;;;;;;2.57;1.43;;;16.20;99.90;;;;;;7542294;77;26302;-57
2022/11/09 05:16:38;;;;;;;2.10;1.50;;;16.20;99.90;;;;;;7545052;79;26872;-58
2022/11/09 05:26:41;;;;;;;2.73;1.60;;;16.00;99.90;;;;;;7549017;79;26428;-57
2022/11/09 05:36:44;;;;;;;2.37;1.33;;;16.20;99.90;;;;;;7532816;77;26270;-59
2022/11/09 05:46:46;;;;;;;3.17;1.20;;;16.10;99.90;;;;;;7549391;79;26305;-57
2022/11/09 05:56:49;;;;;;;3.53;1.33;;;16.30;99.90;;;;;;7550272;79;26791;-58
2022/11/09 06:06:51;;;;;;;3.97;1.43;;;16.10;99.90;;;;;;7549409;79;26297;-58
2022/11/09 06:16:54;;;;;;;3.10;1.87;;;16.20;99.90;;;;;;7545193;77;26261;-59
2022/11/09 06:26:57;;;;;;;2.17;1.10;;;16.20;99.90;;;;;;7549363;79;26838;-57
2022/11/09 06:37:00;;;;;;;1.50;0.90;;;16.20;99.90;;;;;;7526627;77;26301;-59
2022/11/09 06:47:02;;;;;;;1.37;1.03;;;16.20;99.90;;;;;;7527815;77;26921;-58
2022/11/09 06:57:05;;;;;;;1.53;0.90;;;16.10;99.90;;;;;;7527156;77;26352;-59
2022/11/09 07:07:07;;;;;;;1.40;0.80;;;16.10;99.90;;;;;;7510819;77;26313;-57
2022/11/09 07:17:10;;;;;;;1.93;1.10;;;16.10;99.90;;;;;;7548888;79;26290;-57
2022/11/09 07:27:12;;;;;;;2.57;1.03;;;16.20;99.90;;;;;;7538443;79;26400;-56
2022/11/09 07:37:15;;;;;;;1.47;1.17;;;16.10;99.90;;;;;;7542249;79;26748;-54
2022/11/09 07:47:19;;;;;;;1.10;0.87;;;16.10;99.90;;;;;;7496442;77;26387;-55
2022/11/09 07:57:21;;;;;;;1.07;0.73;;;16.30;99.90;;;;;;7517304;79;26388;-54
2022/11/09 08:07:24;;;;;;;1.50;1.13;;;16.10;99.90;;;;;;7536813;77;26924;-56
2022/11/09 08:17:26;;;;;;;2.10;1.00;;;16.20;99.90;;;;;;7508980;79;26276;-54
2022/11/09 08:27:30;;;;;;;2.67;1.17;;;16.20;99.90;;;;;;7516005;79;26811;-56
2022/11/09 08:37:37;;;;;;;3.23;1.37;;;16.30;99.90;;;;;;7517935;77;26347;-57
2022/11/09 08:47:40;;;;;;;2.43;0.80;;;16.40;99.90;;;;;;7499790;77;26297;-54
2022/11/09 08:57:42;;;;;;;2.80;1.03;;;16.60;99.90;;;;;;7514415;79;26849;-58
2022/11/09 09:07:45;;;;;;;1.93;1.03;;;16.80;99.90;;;;;;7522827;77;26377;-60
2022/11/09 09:17:47;;;;;;;3.27;1.17;;;16.80;99.90;;;;;;7500331;77;26342;-54
2022/11/09 09:27:50;;;;;;;1.27;0.80;;;16.70;99.90;;;;;;7522166;77;26308;-55
2022/11/09 09:37:52;;;;;;;2.23;1.00;;;16.70;99.90;;;;;;7517508;77;26311;-54
2022/11/09 09:48:04;;;;;;;3.13;0.93;;;16.70;99.90;;;;;;7518785;77;26362;-57
2022/11/09 09:58:15;;;;;;;3.80;0.90;;;16.90;99.90;;;;;;7529895;79;26404;-55
2022/11/09 10:08:29;;;;;;;1.07;0.73;;;16.80;99.90;;;;;;7510181;77;26345;-52
2022/11/09 10:19:08;;;;;;;1.33;0.97;;;16.90;99.90;;;;;;7516025;77;26319;-58
2022/11/09 10:29:27;;;;;;;1.17;0.80;;;16.70;99.90;;;;;;7535809;79;26359;-57
2022/11/09 10:39:36;;;;;;;1.07;0.90;;;16.80;99.90;;;;;;7505110;77;26375;-53
2022/11/09 10:49:39;;;;;;;1.17;0.90;;;16.90;99.90;;;;;;7511542;79;26371;-58
2022/11/09 10:59:50;;;;;;;1.70;0.97;;;16.80;99.90;;;;;;7528958;77;26267;-55
2022/11/09 11:09:53;;;;;;;4.37;1.30;;;16.70;99.90;;;;;;7487662;77;26285;-52
2022/11/09 11:19:57;;;;;;;3.33;0.93;;;16.90;99.90;;;;;;7535570;79;26952;-57
2022/11/09 11:30:09;;;;;;;2.73;0.97;;;16.70;99.90;;;;;;7524896;79;26271;-58
2022/11/09 11:40:24;;;;;;;1.00;0.63;;;16.70;99.90;;;;;;7538455;77;26812;-56
2022/11/09 11:50:32;;;;;;;5.27;1.43;;;16.90;99.90;;;;;;7530098;79;26368;-59
2022/11/09 12:00:37;;;;;;;4.63;1.10;;;16.80;99.90;;;;;;7516110;77;26309;-55
2022/11/09 12:10:49;;;;;;;1.67;0.67;;;16.70;99.90;;;;;;7548587;79;26337;-57
2022/11/09 12:21:15;;;;;;;4.00;1.40;;;16.70;99.90;;;;;;7548742;79;26331;-57
2022/11/09 12:31:30;;;;;;;1.90;0.97;;;16.90;99.90;;;;;;7543292;79;27123;-57
2022/11/09 12:41:35;;;;;;;1.23;0.60;;;16.90;99.90;;;;;;7522575;79;26381;-57
2022/11/09 12:51:37;;;;;;;1.97;0.80;;;16.90;99.90;;;;;;7539152;77;26298;-58
2022/11/09 13:01:45;;;;;;;1.50;0.70;;;16.70;99.90;;;;;;7548436;79;26317;-57
2022/11/09 13:11:50;;;;;;;3.93;1.00;;;16.90;99.90;;;;;;7549118;79;26322;-60
2022/11/09 13:21:53;;;;;;;1.00;0.70;;;16.80;99.90;;;;;;7537738;77;26347;-57
2022/11/09 13:32:04;;;;;;;1.93;0.93;;;16.90;99.90;;;;;;7532105;77;26344;-57
2022/11/09 13:42:24;;;;;;;1.00;0.80;;;16.90;99.90;;;;;;7537458;77;26845;-56
2022/11/09 13:52:48;;;;;;;3.03;0.83;;;17.00;99.90;;;;;;7546839;77;26273;-57
2022/11/09 14:02:56;;;;;;;2.10;1.07;;;16.90;99.90;;;;;;7538540;77;26289;-57
2022/11/09 14:13:21;;;;;;;2.10;0.80;;;16.80;99.90;;;;;;7538938;79;26513;-57
2022/11/09 14:23:26;;;;;;;4.07;1.30;;;17.00;99.90;;;;;;7548785;79;26385;-55
2022/11/09 14:33:33;;;;;;;3.03;1.00;;;16.80;99.90;;;;;;7541519;79;26258;-58
2022/11/09 14:43:44;;;;;;;3.43;0.90;;;16.90;99.90;;;;;;7541630;79;26360;-58
2022/11/09 14:53:48;;;;;;;2.50;0.97;;;16.80;99.90;;;;;;7549503;79;26870;-57
2022/11/09 15:04:12;;;;;;;5.90;1.90;;;16.70;99.90;;;;;;7551092;77;26322;-57
2022/11/09 15:14:20;;;;;;;4.07;1.07;;;16.80;99.90;;;;;;7532994;77;26262;-58
2022/11/09 15:24:25;;;;;;;4.20;1.60;;;16.90;99.90;;;;;;7547054;79;26744;-57
2022/11/09 15:34:31;;;;;;;1.90;0.60;;;16.60;99.90;;;;;;7538053;77;26298;-57
2022/11/09 15:44:36;;;;;;;3.80;1.13;;;16.80;99.90;;;;;;7548426;77;26262;-58
2022/11/09 15:54:38;;;;;;;3.10;0.87;;;16.80;99.90;;;;;;7529522;79;26262;-58
2022/11/09 16:04:40;;;;;;;3.80;1.10;;;16.70;99.90;;;;;;7546868;79;26313;-58
2022/11/09 16:14:43;;;;;;;5.97;1.20;;;16.60;99.90;;;;;;7549204;79;26259;-57
2022/11/09 16:24:47;;;;;;;5.83;1.50;;;16.60;99.90;;;;;;7538936;77;26308;-59
2022/11/09 16:34:49;;;;;;;6.30;1.37;;;16.50;99.90;;;;;;7523889;77;26278;-59
2022/11/09 16:44:54;;;;;;;3.73;1.23;;;16.50;99.90;;;;;;7547549;79;26306;-58
2022/11/09 16:54:56;;;;;;;4.33;1.43;;;16.70;99.90;;;;;;7548699;79;26326;-58
2022/11/09 17:04:59;;;;;;;4.60;2.63;;;16.60;99.90;;;;;;7540026;77;26341;-57
2022/11/09 17:15:02;;;;;;;4.50;1.90;;;16.60;99.90;;;;;;7543320;79;26330;-58
2022/11/09 17:25:05;;;;;;;5.03;1.63;;;16.50;99.90;;;;;;7549060;79;26760;-57
2022/11/09 17:35:07;;;;;;;5.13;1.37;;;16.70;99.90;;;;;;7532535;77;26316;-58
2022/11/09 17:45:10;;;;;;;4.00;2.03;;;16.60;99.90;;;;;;7531666;77;26271;-58
2022/11/09 17:55:13;;;;;;;28.17;10.43;;;16.50;99.90;;;;;;7548661;79;26293;-57
2022/11/09 18:05:15;;;;;;;6.30;2.90;;;16.40;99.90;;;;;;7540706;77;26360;-56
2022/11/09 18:15:18;;;;;;;10.13;5.37;;;16.40;99.90;;;;;;7524712;77;27458;-56
2022/11/09 18:25:21;;;;;;;11.03;2.93;;;16.50;99.90;;;;;;7544117;77;26267;-58
2022/11/09 18:35:23;;;;;;;5.70;3.00;;;16.50;99.90;;;;;;7535782;77;27101;-57
2022/11/09 18:45:28;;;;;;;6.63;3.33;;;16.40;99.90;;;;;;7541096;77;26278;-58
2022/11/09 18:55:30;;;;;;;6.07;2.70;;;16.40;99.90;;;;;;7549231;79;26752;-58
2022/11/09 19:05:35;;;;;;;5.33;3.00;;;16.40;99.90;;;;;;7547305;79;26270;-59
2022/11/09 19:15:40;;;;;;;8.33;3.33;;;16.30;99.90;;;;;;7551982;77;26280;-57
2022/11/09 19:25:43;;;;;;;5.63;2.63;;;16.40;99.90;;;;;;7532549;79;26270;-59
2022/11/09 19:35:53;;;;;;;6.17;2.83;;;16.30;99.90;;;;;;7517685;77;27090;-57
2022/11/09 19:45:55;;;;;;;6.23;3.07;;;16.20;99.90;;;;;;7548266;77;26306;-59
2022/11/09 19:56:07;;;;;;;6.43;2.43;;;16.30;99.90;;;;;;7537342;77;26270;-59
2022/11/09 20:06:06;;;;;;;7.27;2.47;;;16.30;99.90;;;;;;7542330;79;26278;-57
2022/11/09 20:16:10;;;;;;;5.27;2.53;;;16.20;99.90;;;;;;7545094;79;26328;-69
2022/11/09 20:26:12;;;;;;;12.43;4.30;;;16.30;99.90;;;;;;7528992;77;26294;-66
2022/11/09 20:36:17;;;;;;;7.00;3.63;;;16.30;99.90;;;;;;7509419;77;27741;-65
2022/11/09 20:46:22;;;;;;;7.43;4.30;;;16.10;99.90;;;;;;7529049;79;26343;-66
2022/11/09 20:56:25;;;;;;;10.77;5.27;;;16.20;99.90;;;;;;7528016;79;26282;-66
2022/11/09 21:06:27;;;;;;;14.97;5.07;;;16.20;99.90;;;;;;7526103;79;26874;-66
2022/11/09 21:16:30;;;;;;;11.77;5.73;;;16.00;99.90;;;;;;7546687;77;26262;-66
2022/11/09 21:36:52;;;;;;;12.50;6.90;;;16.20;99.90;;;;;;7524306;79;26354;-66
2022/11/09 21:46:55;;;;;;;10.53;5.60;;;16.10;99.90;;;;;;7550343;77;26369;-66
2022/11/09 21:56:58;;;;;;;11.10;5.90;;;16.00;99.90;;;;;;7493974;79;26348;-67
2022/11/09 22:07:01;;;;;;;11.50;5.87;;;16.10;99.90;;;;;;7495525;79;26290;-66
2022/11/09 22:17:07;;;;;;;11.67;5.60;;;15.90;99.90;;;;;;7546835;79;26274;-67
2022/11/09 22:27:09;;;;;;;8.83;5.43;;;16.00;99.90;;;;;;7547802;79;26262;-67
2022/11/09 22:37:11;;;;;;;13.13;6.27;;;16.00;99.90;;;;;;7530438;79;26317;-67
2022/11/09 22:47:14;;;;;;;9.57;4.93;;;16.00;99.90;;;;;;7546451;79;26966;-67
2022/11/09 22:57:16;;;;;;;9.20;5.23;;;16.00;99.90;;;;;;7507773;77;26278;-67
2022/11/09 23:07:19;;;;;;;13.63;5.90;;;16.00;99.90;;;;;;7535394;77;26372;-67
2022/11/09 23:27:42;;;;;;;10.17;4.77;;;15.90;99.90;;;;;;7536155;79;26389;-69
2022/11/09 23:37:44;;;;;;;9.37;4.63;;;15.80;99.90;;;;;;7535748;79;26823;-66
2022/11/09 23:47:47;;;;;;;10.57;4.40;;;15.90;99.90;;;;;;7539263;77;26314;-66
2022/11/09 23:57:50;;;;;;;10.17;4.30;;;15.90;99.90;;;;;;7539647;79;26769;-67
